createdAt,value
2024-01-24T00:00:38.116Z,951.1
2024-01-24T00:15:39.261Z,951.7
2024-01-24T00:30:39.476Z,951.7
2024-01-24T00:45:40.137Z,949.6
2024-01-24T01:00:44.492Z,950.2
2024-01-24T01:15:42.067Z,951.1
2024-01-24T01:30:43.031Z,950.8
2024-01-24T01:45:43.979Z,949.4
2024-01-24T02:00:43.990Z,950.1
2024-01-24T02:15:44.873Z,949
2024-01-24T02:30:45.824Z,947
2024-01-24T02:45:45.730Z,946.8
2024-01-24T03:00:47.094Z,944.4
2024-01-24T03:15:47.567Z,943.3
2024-01-24T03:30:48.764Z,942.7
2024-01-24T03:45:50.065Z,942.4
2024-01-24T04:00:50.003Z,942.9
2024-01-24T04:15:50.930Z,943
2024-01-24T04:30:53.308Z,943
2024-01-24T04:45:52.064Z,943
2024-01-24T05:00:53.071Z,943
2024-01-24T05:15:54.803Z,943.1
2024-01-24T05:30:54.413Z,942.8
2024-01-24T05:45:55.477Z,942.8
2024-01-24T06:00:57.539Z,942.8
2024-01-24T06:16:09.915Z,943.2
2024-01-24T06:30:57.160Z,943.5
2024-01-24T06:45:57.913Z,943
2024-01-24T06:58:40.011Z,943
2024-01-24T07:13:40.523Z,942.9
2024-01-24T07:28:41.089Z,942.6
2024-01-24T07:43:42.164Z,943
2024-01-24T07:58:44.390Z,943.2
2024-01-24T08:13:44.511Z,943.6
2024-01-24T08:28:44.961Z,944.2
2024-01-24T08:43:50.649Z,944.2
2024-01-24T08:58:47.944Z,944
2024-01-24T09:13:46.350Z,943.4
2024-01-24T09:28:47.074Z,942.8
2024-01-24T09:43:49.628Z,942.8
2024-01-24T09:58:49.044Z,944.4
2024-01-24T10:13:49.312Z,944.5
2024-01-24T10:28:57.085Z,944.1
2024-01-24T10:43:51.168Z,943.8
2024-01-24T10:58:56.082Z,943.8
2024-01-24T11:13:57.884Z,943.8
2024-01-24T11:28:52.915Z,943.3
2024-01-24T11:43:53.975Z,943.4
2024-01-24T11:58:54.372Z,943.4
2024-01-24T12:13:54.744Z,942.8
2024-01-24T12:28:57.120Z,942.9
2024-01-24T12:43:55.608Z,943.2
2024-01-24T12:58:57.350Z,945.4
2024-01-24T13:13:57.688Z,944.5
2024-01-24T13:28:59.533Z,943.8
2024-01-24T13:43:59.054Z,945.7
2024-01-24T13:59:00.522Z,946.5
2024-01-24T14:14:00.799Z,943.5
2024-01-24T14:29:01.310Z,942.9
2024-01-24T14:44:02.075Z,943.3
2024-01-24T14:59:02.605Z,943
2024-01-24T15:14:04.335Z,943.7
2024-01-24T15:29:04.794Z,943.6
2024-01-24T15:44:04.023Z,945
2024-01-24T15:59:06.107Z,945.3
2024-01-24T16:14:05.850Z,948.6
2024-01-24T16:29:06.876Z,951.8
2024-01-24T16:44:07.158Z,951.9
2024-01-24T16:59:09.900Z,952.3
2024-01-24T17:14:08.799Z,952.7
2024-01-24T17:29:09.947Z,952.8
2024-01-24T17:44:14.601Z,952.9
2024-01-24T17:59:09.660Z,952.9
2024-01-24T18:14:11.039Z,953
2024-01-24T18:29:12.269Z,953
2024-01-24T18:44:13.947Z,952.8
2024-01-24T18:59:13.738Z,952.3
2024-01-24T19:14:14.001Z,952.3
2024-01-24T19:29:14.588Z,952.1
2024-01-24T19:44:15.581Z,952.2
2024-01-24T19:59:16.094Z,952.2
2024-01-24T20:14:17.530Z,952.2
2024-01-24T20:29:24.350Z,952.2
2024-01-24T20:44:18.448Z,952.8
2024-01-24T20:59:31.025Z,953.1
2024-01-24T21:14:20.785Z,953.3
2024-01-24T21:29:21.514Z,953.4
2024-01-24T21:44:24.442Z,953.3
2024-01-24T21:59:21.704Z,953.3
2024-01-24T22:14:23.861Z,953.4
2024-01-24T22:29:23.396Z,953.2
2024-01-24T22:44:24.859Z,953.3
2024-01-24T22:59:24.821Z,953.2
2024-01-24T23:00:35.089Z,953.1
2024-01-24T23:15:38.786Z,953.1
2024-01-24T23:30:38.164Z,953
2024-01-24T23:45:38.549Z,953.6
